sensor_id;sensor_type;location;lat;lon;timestamp;P1;durP1;ratioP1;P2;durP2;ratioP2
20729;SDS011;10526;50.850;12.928;2022-11-03T00:01:19;19.40;;;9.00;;
20729;SDS011;10526;50.850;12.928;2022-11-03T00:05:41;20.73;;;8.50;;
20729;SDS011;10526;50.850;12.928;2022-11-03T00:10:22;29.85;;;9.02;;
20729;SDS011;10526;50.850;12.928;2022-11-03T00:14:44;24.52;;;8.38;;
20729;SDS011;10526;50.850;12.928;2022-11-03T00:19:07;22.30;;;9.05;;
20729;SDS011;10526;50.850;12.928;2022-11-03T00:23:31;21.33;;;8.82;;
20729;SDS011;10526;50.850;12.928;2022-11-03T00:27:56;28.50;;;8.77;;
20729;SDS011;10526;50.850;12.928;2022-11-03T00:32:18;21.95;;;7.70;;
20729;SDS011;10526;50.850;12.928;2022-11-03T00:36:41;21.67;;;8.27;;
20729;SDS011;10526;50.850;12.928;2022-11-03T00:41:04;17.23;;;7.53;;
20729;SDS011;10526;50.850;12.928;2022-11-03T00:45:27;25.63;;;8.02;;
20729;SDS011;10526;50.850;12.928;2022-11-03T00:49:49;23.80;;;8.20;;
20729;SDS011;10526;50.850;12.928;2022-11-03T00:54:11;24.25;;;8.48;;
20729;SDS011;10526;50.850;12.928;2022-11-03T00:58:33;25.92;;;7.70;;
20729;SDS011;10526;50.850;12.928;2022-11-03T01:02:55;22.90;;;8.43;;
20729;SDS011;10526;50.850;12.928;2022-11-03T01:07:18;21.65;;;7.75;;
20729;SDS011;10526;50.850;12.928;2022-11-03T01:11:41;29.38;;;8.75;;
20729;SDS011;10526;50.850;12.928;2022-11-03T01:16:04;21.80;;;7.45;;
20729;SDS011;10526;50.850;12.928;2022-11-03T01:20:25;22.33;;;7.57;;
20729;SDS011;10526;50.850;12.928;2022-11-03T01:24:47;19.90;;;6.70;;
20729;SDS011;10526;50.850;12.928;2022-11-03T01:29:10;24.05;;;7.70;;
20729;SDS011;10526;50.850;12.928;2022-11-03T01:33:32;22.75;;;7.25;;
20729;SDS011;10526;50.850;12.928;2022-11-03T01:37:54;24.08;;;8.43;;
20729;SDS011;10526;50.850;12.928;2022-11-03T01:42:16;23.67;;;7.63;;
20729;SDS011;10526;50.850;12.928;2022-11-03T01:46:40;25.02;;;7.07;;
20729;SDS011;10526;50.850;12.928;2022-11-03T01:51:11;26.30;;;9.32;;
20729;SDS011;10526;50.850;12.928;2022-11-03T01:55:36;21.95;;;8.80;;
20729;SDS011;10526;50.850;12.928;2022-11-03T02:00:02;25.05;;;10.07;;
20729;SDS011;10526;50.850;12.928;2022-11-03T02:04:32;25.92;;;10.88;;
20729;SDS011;10526;50.850;12.928;2022-11-03T02:13:22;28.27;;;10.18;;
20729;SDS011;10526;50.850;12.928;2022-11-03T02:17:46;27.70;;;10.55;;
20729;SDS011;10526;50.850;12.928;2022-11-03T02:27:15;28.80;;;7.55;;
20729;SDS011;10526;50.850;12.928;2022-11-03T02:31:40;22.45;;;6.45;;
20729;SDS011;10526;50.850;12.928;2022-11-03T02:36:09;17.73;;;6.97;;
20729;SDS011;10526;50.850;12.928;2022-11-03T02:40:41;23.15;;;8.88;;
20729;SDS011;10526;50.850;12.928;2022-11-03T02:45:08;20.70;;;8.70;;
20729;SDS011;10526;50.850;12.928;2022-11-03T02:49:47;24.23;;;9.50;;
20729;SDS011;10526;50.850;12.928;2022-11-03T02:54:16;24.58;;;9.55;;
20729;SDS011;10526;50.850;12.928;2022-11-03T02:58:56;24.88;;;8.77;;
20729;SDS011;10526;50.850;12.928;2022-11-03T03:03:47;26.55;;;8.45;;
20729;SDS011;10526;50.850;12.928;2022-11-03T03:08:12;25.52;;;8.50;;
20729;SDS011;10526;50.850;12.928;2022-11-03T03:12:36;13.80;;;5.65;;
20729;SDS011;10526;50.850;12.928;2022-11-03T03:17:14;20.77;;;7.03;;
20729;SDS011;10526;50.850;12.928;2022-11-03T03:21:41;21.60;;;6.75;;
20729;SDS011;10526;50.850;12.928;2022-11-03T03:26:11;21.42;;;6.65;;
20729;SDS011;10526;50.850;12.928;2022-11-03T03:30:41;22.00;;;6.20;;
20729;SDS011;10526;50.850;12.928;2022-11-03T03:35:05;24.88;;;6.07;;
20729;SDS011;10526;50.850;12.928;2022-11-03T03:39:34;22.00;;;5.90;;
20729;SDS011;10526;50.850;12.928;2022-11-03T03:43:59;15.95;;;5.38;;
20729;SDS011;10526;50.850;12.928;2022-11-03T03:48:25;16.20;;;5.00;;
20729;SDS011;10526;50.850;12.928;2022-11-03T03:52:47;21.90;;;4.95;;
20729;SDS011;10526;50.850;12.928;2022-11-03T03:57:30;23.38;;;5.72;;
20729;SDS011;10526;50.850;12.928;2022-11-03T04:01:52;19.88;;;5.35;;
20729;SDS011;10526;50.850;12.928;2022-11-03T04:06:14;16.80;;;5.25;;
20729;SDS011;10526;50.850;12.928;2022-11-03T04:10:36;15.27;;;5.05;;
20729;SDS011;10526;50.850;12.928;2022-11-03T04:14:58;15.93;;;5.65;;
20729;SDS011;10526;50.850;12.928;2022-11-03T04:19:38;21.50;;;5.93;;
20729;SDS011;10526;50.850;12.928;2022-11-03T04:24:19;22.35;;;5.72;;
20729;SDS011;10526;50.850;12.928;2022-11-03T04:28:41;19.27;;;4.65;;
20729;SDS011;10526;50.850;12.928;2022-11-03T04:33:13;13.88;;;4.95;;
20729;SDS011;10526;50.850;12.928;2022-11-03T04:37:43;22.98;;;4.38;;
20729;SDS011;10526;50.850;12.928;2022-11-03T04:42:16;17.67;;;4.78;;
20729;SDS011;10526;50.850;12.928;2022-11-03T04:46:41;20.05;;;5.57;;
20729;SDS011;10526;50.850;12.928;2022-11-03T04:51:28;18.90;;;5.75;;
20729;SDS011;10526;50.850;12.928;2022-11-03T04:55:51;13.77;;;4.35;;
20729;SDS011;10526;50.850;12.928;2022-11-03T05:00:14;18.67;;;3.72;;
20729;SDS011;10526;50.850;12.928;2022-11-03T05:04:39;14.18;;;3.60;;
20729;SDS011;10526;50.850;12.928;2022-11-03T05:09:06;17.52;;;4.07;;
20729;SDS011;10526;50.850;12.928;2022-11-03T05:13:40;11.07;;;3.22;;
20729;SDS011;10526;50.850;12.928;2022-11-03T05:18:16;11.90;;;3.42;;
20729;SDS011;10526;50.850;12.928;2022-11-03T05:22:52;16.98;;;3.35;;
20729;SDS011;10526;50.850;12.928;2022-11-03T05:27:18;11.23;;;3.30;;
20729;SDS011;10526;50.850;12.928;2022-11-03T05:31:41;11.25;;;2.42;;
20729;SDS011;10526;50.850;12.928;2022-11-03T05:36:18;10.55;;;2.42;;
20729;SDS011;10526;50.850;12.928;2022-11-03T05:40:42;12.95;;;2.35;;
20729;SDS011;10526;50.850;12.928;2022-11-03T05:45:11;13.20;;;2.50;;
20729;SDS011;10526;50.850;12.928;2022-11-03T05:49:42;15.00;;;3.28;;
20729;SDS011;10526;50.850;12.928;2022-11-03T05:54:05;17.13;;;2.53;;
20729;SDS011;10526;50.850;12.928;2022-11-03T05:58:40;15.18;;;2.38;;
20729;SDS011;10526;50.850;12.928;2022-11-03T06:03:03;11.85;;;2.90;;
20729;SDS011;10526;50.850;12.928;2022-11-03T06:07:26;12.05;;;2.55;;
20729;SDS011;10526;50.850;12.928;2022-11-03T06:11:53;7.13;;;2.38;;
20729;SDS011;10526;50.850;12.928;2022-11-03T06:21:13;14.10;;;2.80;;
20729;SDS011;10526;50.850;12.928;2022-11-03T06:25:41;10.23;;;2.20;;
20729;SDS011;10526;50.850;12.928;2022-11-03T06:30:23;9.35;;;2.40;;
20729;SDS011;10526;50.850;12.928;2022-11-03T06:34:52;12.63;;;2.55;;
20729;SDS011;10526;50.850;12.928;2022-11-03T06:39:22;12.35;;;3.33;;
20729;SDS011;10526;50.850;12.928;2022-11-03T06:43:46;13.38;;;2.83;;
20729;SDS011;10526;50.850;12.928;2022-11-03T06:48:10;11.40;;;2.15;;
20729;SDS011;10526;50.850;12.928;2022-11-03T06:52:40;11.55;;;2.58;;
20729;SDS011;10526;50.850;12.928;2022-11-03T06:57:09;10.32;;;2.45;;
20729;SDS011;10526;50.850;12.928;2022-11-03T07:01:36;10.77;;;2.30;;
20729;SDS011;10526;50.850;12.928;2022-11-03T07:06:04;12.43;;;2.58;;
20729;SDS011;10526;50.850;12.928;2022-11-03T07:10:45;16.10;;;3.30;;
20729;SDS011;10526;50.850;12.928;2022-11-03T07:15:21;10.70;;;2.88;;
20729;SDS011;10526;50.850;12.928;2022-11-03T07:21:11;7.45;;;2.88;;
20729;SDS011;10526;50.850;12.928;2022-11-03T07:33:13;11.85;;;2.08;;
20729;SDS011;10526;50.850;12.928;2022-11-03T07:37:43;10.88;;;2.58;;
20729;SDS011;10526;50.850;12.928;2022-11-03T07:42:10;11.30;;;3.15;;
20729;SDS011;10526;50.850;12.928;2022-11-03T07:46:38;7.90;;;1.80;;
20729;SDS011;10526;50.850;12.928;2022-11-03T07:55:47;9.30;;;2.28;;
20729;SDS011;10526;50.850;12.928;2022-11-03T08:00:10;11.32;;;2.10;;
20729;SDS011;10526;50.850;12.928;2022-11-03T08:04:42;8.82;;;1.90;;
20729;SDS011;10526;50.850;12.928;2022-11-03T08:09:04;9.25;;;2.28;;
20729;SDS011;10526;50.850;12.928;2022-11-03T08:13:27;8.95;;;1.98;;
20729;SDS011;10526;50.850;12.928;2022-11-03T08:17:49;9.25;;;2.03;;
20729;SDS011;10526;50.850;12.928;2022-11-03T08:22:16;8.38;;;1.48;;
20729;SDS011;10526;50.850;12.928;2022-11-03T08:26:38;7.80;;;2.13;;
20729;SDS011;10526;50.850;12.928;2022-11-03T08:31:00;9.82;;;1.70;;
20729;SDS011;10526;50.850;12.928;2022-11-03T08:35:32;5.00;;;1.80;;
20729;SDS011;10526;50.850;12.928;2022-11-03T08:39:54;8.18;;;1.70;;
20729;SDS011;10526;50.850;12.928;2022-11-03T08:44:16;12.82;;;2.45;;
20729;SDS011;10526;50.850;12.928;2022-11-03T08:48:38;9.18;;;2.08;;
20729;SDS011;10526;50.850;12.928;2022-11-03T08:53:00;6.85;;;1.88;;
20729;SDS011;10526;50.850;12.928;2022-11-03T08:57:22;6.22;;;1.60;;
20729;SDS011;10526;50.850;12.928;2022-11-03T09:01:45;6.93;;;1.75;;
20729;SDS011;10526;50.850;12.928;2022-11-03T09:06:07;15.45;;;3.10;;
20729;SDS011;10526;50.850;12.928;2022-11-03T09:10:29;9.85;;;2.70;;
20729;SDS011;10526;50.850;12.928;2022-11-03T09:14:55;9.70;;;2.13;;
20729;SDS011;10526;50.850;12.928;2022-11-03T09:19:17;11.43;;;2.10;;
20729;SDS011;10526;50.850;12.928;2022-11-03T09:23:39;10.48;;;2.50;;
20729;SDS011;10526;50.850;12.928;2022-11-03T09:28:01;10.30;;;2.28;;
20729;SDS011;10526;50.850;12.928;2022-11-03T09:32:23;6.95;;;2.22;;
20729;SDS011;10526;50.850;12.928;2022-11-03T09:36:45;10.27;;;2.42;;
20729;SDS011;10526;50.850;12.928;2022-11-03T09:41:13;8.35;;;2.15;;
20729;SDS011;10526;50.850;12.928;2022-11-03T09:45:55;6.03;;;2.55;;
20729;SDS011;10526;50.850;12.928;2022-11-03T09:50:17;8.13;;;2.10;;
20729;SDS011;10526;50.850;12.928;2022-11-03T09:54:43;9.55;;;2.97;;
20729;SDS011;10526;50.850;12.928;2022-11-03T09:59:15;9.02;;;2.42;;
20729;SDS011;10526;50.850;12.928;2022-11-03T10:03:39;7.63;;;2.30;;
20729;SDS011;10526;50.850;12.928;2022-11-03T10:08:02;7.70;;;2.50;;
20729;SDS011;10526;50.850;12.928;2022-11-03T10:12:34;10.32;;;2.28;;
20729;SDS011;10526;50.850;12.928;2022-11-03T10:16:57;9.32;;;2.45;;
20729;SDS011;10526;50.850;12.928;2022-11-03T10:21:28;9.35;;;2.22;;
20729;SDS011;10526;50.850;12.928;2022-11-03T10:25:58;8.95;;;2.40;;
20729;SDS011;10526;50.850;12.928;2022-11-03T10:30:30;8.25;;;2.22;;
20729;SDS011;10526;50.850;12.928;2022-11-03T10:35:48;11.32;;;2.65;;
20729;SDS011;10526;50.850;12.928;2022-11-03T10:39:55;8.05;;;2.00;;
20729;SDS011;10526;50.850;12.928;2022-11-03T10:44:18;10.40;;;2.03;;
20729;SDS011;10526;50.850;12.928;2022-11-03T10:48:41;7.50;;;2.33;;
20729;SDS011;10526;50.850;12.928;2022-11-03T10:53:02;10.65;;;2.40;;
20729;SDS011;10526;50.850;12.928;2022-11-03T10:57:25;7.18;;;1.70;;
20729;SDS011;10526;50.850;12.928;2022-11-03T11:01:48;6.35;;;1.67;;
20729;SDS011;10526;50.850;12.928;2022-11-03T11:06:17;5.47;;;1.67;;
20729;SDS011;10526;50.850;12.928;2022-11-03T11:10:49;7.07;;;2.15;;
20729;SDS011;10526;50.850;12.928;2022-11-03T11:20:18;8.27;;;2.08;;
20729;SDS011;10526;50.850;12.928;2022-11-03T11:24:56;6.18;;;2.22;;
20729;SDS011;10526;50.850;12.928;2022-11-03T11:29:44;11.48;;;2.78;;
20729;SDS011;10526;50.850;12.928;2022-11-03T11:47:54;5.97;;;1.55;;
20729;SDS011;10526;50.850;12.928;2022-11-03T11:52:17;8.38;;;1.98;;
20729;SDS011;10526;50.850;12.928;2022-11-03T11:56:43;6.30;;;2.10;;
20729;SDS011;10526;50.850;12.928;2022-11-03T12:01:24;7.97;;;2.05;;
20729;SDS011;10526;50.850;12.928;2022-11-03T12:05:50;7.38;;;2.88;;
20729;SDS011;10526;50.850;12.928;2022-11-03T12:10:16;8.55;;;2.28;;
20729;SDS011;10526;50.850;12.928;2022-11-03T12:14:42;12.98;;;2.42;;
20729;SDS011;10526;50.850;12.928;2022-11-03T12:23:54;8.23;;;2.13;;
20729;SDS011;10526;50.850;12.928;2022-11-03T12:28:29;8.13;;;2.25;;
20729;SDS011;10526;50.850;12.928;2022-11-03T12:32:52;11.25;;;2.17;;
20729;SDS011;10526;50.850;12.928;2022-11-03T12:37:14;10.90;;;2.85;;
20729;SDS011;10526;50.850;12.928;2022-11-03T12:41:36;5.55;;;1.90;;
20729;SDS011;10526;50.850;12.928;2022-11-03T12:45:58;6.53;;;2.15;;
20729;SDS011;10526;50.850;12.928;2022-11-03T12:50:20;12.25;;;2.10;;
20729;SDS011;10526;50.850;12.928;2022-11-03T12:54:42;9.98;;;3.45;;
20729;SDS011;10526;50.850;12.928;2022-11-03T12:59:04;9.02;;;2.65;;
20729;SDS011;10526;50.850;12.928;2022-11-03T13:03:26;8.77;;;2.45;;
20729;SDS011;10526;50.850;12.928;2022-11-03T13:07:49;9.45;;;2.70;;
20729;SDS011;10526;50.850;12.928;2022-11-03T13:12:11;6.95;;;2.05;;
20729;SDS011;10526;50.850;12.928;2022-11-03T13:16:51;10.88;;;3.05;;
20729;SDS011;10526;50.850;12.928;2022-11-03T13:21:13;9.30;;;2.35;;
20729;SDS011;10526;50.850;12.928;2022-11-03T13:25:35;9.95;;;2.53;;
20729;SDS011;10526;50.850;12.928;2022-11-03T13:29:57;10.18;;;2.63;;
20729;SDS011;10526;50.850;12.928;2022-11-03T13:34:19;10.75;;;2.75;;
20729;SDS011;10526;50.850;12.928;2022-11-03T13:38:41;12.18;;;3.00;;
20729;SDS011;10526;50.850;12.928;2022-11-03T13:43:03;9.35;;;2.67;;
20729;SDS011;10526;50.850;12.928;2022-11-03T13:47:26;12.23;;;2.70;;
20729;SDS011;10526;50.850;12.928;2022-11-03T13:52:07;9.30;;;2.60;;
20729;SDS011;10526;50.850;12.928;2022-11-03T13:56:29;11.10;;;3.30;;
20729;SDS011;10526;50.850;12.928;2022-11-03T14:00:52;13.52;;;3.75;;
20729;SDS011;10526;50.850;12.928;2022-11-03T14:05:14;9.98;;;3.45;;
20729;SDS011;10526;50.850;12.928;2022-11-03T14:09:36;9.77;;;3.05;;
20729;SDS011;10526;50.850;12.928;2022-11-03T14:13:58;13.25;;;3.50;;
20729;SDS011;10526;50.850;12.928;2022-11-03T14:18:20;13.20;;;3.42;;
20729;SDS011;10526;50.850;12.928;2022-11-03T14:22:42;12.63;;;4.05;;
20729;SDS011;10526;50.850;12.928;2022-11-03T14:27:04;10.60;;;3.65;;
20729;SDS011;10526;50.850;12.928;2022-11-03T14:31:27;10.23;;;3.67;;
20729;SDS011;10526;50.850;12.928;2022-11-03T14:35:49;17.23;;;4.38;;
20729;SDS011;10526;50.850;12.928;2022-11-03T14:40:11;10.63;;;3.70;;
20729;SDS011;10526;50.850;12.928;2022-11-03T14:44:53;16.48;;;4.93;;
20729;SDS011;10526;50.850;12.928;2022-11-03T14:49:16;15.77;;;5.25;;
20729;SDS011;10526;50.850;12.928;2022-11-03T14:53:38;18.08;;;4.68;;
20729;SDS011;10526;50.850;12.928;2022-11-03T14:57:59;15.68;;;3.85;;
20729;SDS011;10526;50.850;12.928;2022-11-03T15:02:21;15.43;;;4.90;;
20729;SDS011;10526;50.850;12.928;2022-11-03T15:06:44;14.35;;;5.15;;
20729;SDS011;10526;50.850;12.928;2022-11-03T15:11:06;13.00;;;4.88;;
20729;SDS011;10526;50.850;12.928;2022-11-03T15:15:29;18.48;;;5.15;;
20729;SDS011;10526;50.850;12.928;2022-11-03T15:19:51;15.60;;;5.32;;
20729;SDS011;10526;50.850;12.928;2022-11-03T15:24:14;15.13;;;5.65;;
20729;SDS011;10526;50.850;12.928;2022-11-03T15:28:56;16.88;;;5.13;;
20729;SDS011;10526;50.850;12.928;2022-11-03T15:33:18;15.57;;;5.63;;
20729;SDS011;10526;50.850;12.928;2022-11-03T15:37:41;14.63;;;5.70;;
20729;SDS011;10526;50.850;12.928;2022-11-03T15:42:03;19.10;;;6.55;;
20729;SDS011;10526;50.850;12.928;2022-11-03T15:46:25;20.05;;;6.32;;
20729;SDS011;10526;50.850;12.928;2022-11-03T15:50:47;21.55;;;6.35;;
20729;SDS011;10526;50.850;12.928;2022-11-03T15:55:09;15.23;;;5.82;;
20729;SDS011;10526;50.850;12.928;2022-11-03T15:59:31;19.92;;;6.20;;
20729;SDS011;10526;50.850;12.928;2022-11-03T16:03:52;20.25;;;6.53;;
20729;SDS011;10526;50.850;12.928;2022-11-03T16:08:15;19.58;;;6.85;;
20729;SDS011;10526;50.850;12.928;2022-11-03T16:12:37;18.10;;;6.50;;
20729;SDS011;10526;50.850;12.928;2022-11-03T16:16:59;21.48;;;7.13;;
20729;SDS011;10526;50.850;12.928;2022-11-03T16:21:21;19.17;;;6.25;;
20729;SDS011;10526;50.850;12.928;2022-11-03T16:25:45;18.52;;;7.30;;
20729;SDS011;10526;50.850;12.928;2022-11-03T16:30:08;16.95;;;6.53;;
20729;SDS011;10526;50.850;12.928;2022-11-03T16:34:31;16.60;;;6.38;;
20729;SDS011;10526;50.850;12.928;2022-11-03T16:38:54;18.77;;;7.03;;
20729;SDS011;10526;50.850;12.928;2022-11-03T16:43:16;17.88;;;7.25;;
20729;SDS011;10526;50.850;12.928;2022-11-03T16:47:38;18.50;;;7.03;;
20729;SDS011;10526;50.850;12.928;2022-11-03T16:52:00;18.15;;;8.27;;
20729;SDS011;10526;50.850;12.928;2022-11-03T16:56:22;20.67;;;7.93;;
20729;SDS011;10526;50.850;12.928;2022-11-03T17:00:47;18.40;;;9.23;;
20729;SDS011;10526;50.850;12.928;2022-11-03T17:05:13;24.48;;;9.80;;
20729;SDS011;10526;50.850;12.928;2022-11-03T17:09:37;24.33;;;11.05;;
20729;SDS011;10526;50.850;12.928;2022-11-03T17:14:01;23.48;;;11.40;;
20729;SDS011;10526;50.850;12.928;2022-11-03T17:18:25;28.90;;;14.20;;
20729;SDS011;10526;50.850;12.928;2022-11-03T17:22:47;24.50;;;13.60;;
20729;SDS011;10526;50.850;12.928;2022-11-03T17:27:10;24.92;;;13.32;;
20729;SDS011;10526;50.850;12.928;2022-11-03T17:31:49;29.15;;;15.77;;
20729;SDS011;10526;50.850;12.928;2022-11-03T17:36:11;27.33;;;14.43;;
20729;SDS011;10526;50.850;12.928;2022-11-03T17:40:34;29.63;;;15.27;;
20729;SDS011;10526;50.850;12.928;2022-11-03T17:44:58;27.55;;;14.32;;
20729;SDS011;10526;50.850;12.928;2022-11-03T17:49:22;30.80;;;15.88;;
20729;SDS011;10526;50.850;12.928;2022-11-03T17:53:38;32.05;;;14.70;;
20729;SDS011;10526;50.850;12.928;2022-11-03T17:58:03;27.13;;;13.95;;
20729;SDS011;10526;50.850;12.928;2022-11-03T18:02:26;26.52;;;14.38;;
20729;SDS011;10526;50.850;12.928;2022-11-03T18:06:52;32.22;;;16.10;;
20729;SDS011;10526;50.850;12.928;2022-11-03T18:11:17;27.10;;;13.55;;
20729;SDS011;10526;50.850;12.928;2022-11-03T18:16:09;24.10;;;12.98;;
20729;SDS011;10526;50.850;12.928;2022-11-03T18:20:32;31.02;;;14.48;;
20729;SDS011;10526;50.850;12.928;2022-11-03T18:24:55;27.63;;;13.68;;
20729;SDS011;10526;50.850;12.928;2022-11-03T18:29:17;23.48;;;12.43;;
20729;SDS011;10526;50.850;12.928;2022-11-03T18:33:39;26.92;;;14.93;;
20729;SDS011;10526;50.850;12.928;2022-11-03T18:38:01;29.17;;;13.02;;
20729;SDS011;10526;50.850;12.928;2022-11-03T18:42:30;25.73;;;12.88;;
20729;SDS011;10526;50.850;12.928;2022-11-03T18:46:52;25.55;;;11.85;;
20729;SDS011;10526;50.850;12.928;2022-11-03T18:51:15;23.33;;;11.65;;
20729;SDS011;10526;50.850;12.928;2022-11-03T18:55:38;26.10;;;11.77;;
20729;SDS011;10526;50.850;12.928;2022-11-03T19:00:02;24.25;;;11.70;;
20729;SDS011;10526;50.850;12.928;2022-11-03T19:04:26;25.63;;;11.88;;
20729;SDS011;10526;50.850;12.928;2022-11-03T19:08:48;21.75;;;10.38;;
20729;SDS011;10526;50.850;12.928;2022-11-03T19:13:29;22.95;;;10.85;;
20729;SDS011;10526;50.850;12.928;2022-11-03T19:17:55;22.88;;;10.05;;
20729;SDS011;10526;50.850;12.928;2022-11-03T19:22:19;20.95;;;10.50;;
20729;SDS011;10526;50.850;12.928;2022-11-03T19:26:43;19.45;;;9.40;;
20729;SDS011;10526;50.850;12.928;2022-11-03T19:31:17;17.50;;;7.70;;
20729;SDS011;10526;50.850;12.928;2022-11-03T19:35:54;24.40;;;8.27;;
20729;SDS011;10526;50.850;12.928;2022-11-03T19:40:18;18.90;;;8.27;;
20729;SDS011;10526;50.850;12.928;2022-11-03T19:44:40;20.65;;;8.65;;
20729;SDS011;10526;50.850;12.928;2022-11-03T19:49:02;18.85;;;7.70;;
20729;SDS011;10526;50.850;12.928;2022-11-03T19:53:26;16.20;;;7.30;;
20729;SDS011;10526;50.850;12.928;2022-11-03T19:57:50;17.67;;;7.43;;
20729;SDS011;10526;50.850;12.928;2022-11-03T20:02:12;18.75;;;7.70;;
20729;SDS011;10526;50.850;12.928;2022-11-03T20:06:37;16.85;;;7.68;;
20729;SDS011;10526;50.850;12.928;2022-11-03T20:11:01;17.27;;;7.25;;
20729;SDS011;10526;50.850;12.928;2022-11-03T20:15:25;17.27;;;8.25;;
20729;SDS011;10526;50.850;12.928;2022-11-03T20:19:47;15.55;;;7.05;;
20729;SDS011;10526;50.850;12.928;2022-11-03T20:24:10;19.17;;;7.28;;
20729;SDS011;10526;50.850;12.928;2022-11-03T20:28:37;16.95;;;7.07;;
20729;SDS011;10526;50.850;12.928;2022-11-03T20:32:59;16.80;;;7.18;;
20729;SDS011;10526;50.850;12.928;2022-11-03T20:37:21;18.10;;;7.10;;
20729;SDS011;10526;50.850;12.928;2022-11-03T20:41:50;18.80;;;6.75;;
20729;SDS011;10526;50.850;12.928;2022-11-03T20:50:49;16.15;;;7.50;;
20729;SDS011;10526;50.850;12.928;2022-11-03T20:55:17;16.70;;;7.15;;
20729;SDS011;10526;50.850;12.928;2022-11-03T20:59:45;18.00;;;7.47;;
20729;SDS011;10526;50.850;12.928;2022-11-03T21:04:14;17.38;;;6.50;;
20729;SDS011;10526;50.850;12.928;2022-11-03T21:08:39;14.30;;;6.60;;
20729;SDS011;10526;50.850;12.928;2022-11-03T21:13:01;16.85;;;6.20;;
20729;SDS011;10526;50.850;12.928;2022-11-03T21:17:23;17.98;;;6.35;;
20729;SDS011;10526;50.850;12.928;2022-11-03T21:22:14;15.02;;;5.88;;
20729;SDS011;10526;50.850;12.928;2022-11-03T21:27:04;16.92;;;6.50;;
20729;SDS011;10526;50.850;12.928;2022-11-03T21:31:26;17.38;;;7.75;;
20729;SDS011;10526;50.850;12.928;2022-11-03T21:35:48;18.75;;;7.90;;
20729;SDS011;10526;50.850;12.928;2022-11-03T21:40:11;17.23;;;8.25;;
20729;SDS011;10526;50.850;12.928;2022-11-03T21:44:33;17.13;;;9.18;;
20729;SDS011;10526;50.850;12.928;2022-11-03T21:48:56;22.02;;;9.63;;
20729;SDS011;10526;50.850;12.928;2022-11-03T21:53:36;18.52;;;9.20;;
20729;SDS011;10526;50.850;12.928;2022-11-03T21:58:00;18.98;;;9.60;;
20729;SDS011;10526;50.850;12.928;2022-11-03T22:02:24;18.83;;;10.85;;
20729;SDS011;10526;50.850;12.928;2022-11-03T22:06:48;21.63;;;11.13;;
20729;SDS011;10526;50.850;12.928;2022-11-03T22:11:13;24.75;;;13.30;;
20729;SDS011;10526;50.850;12.928;2022-11-03T22:15:41;24.15;;;13.93;;
20729;SDS011;10526;50.850;12.928;2022-11-03T22:20:22;27.23;;;14.25;;
20729;SDS011;10526;50.850;12.928;2022-11-03T22:25:02;29.60;;;15.80;;
20729;SDS011;10526;50.850;12.928;2022-11-03T22:29:43;27.05;;;13.77;;
20729;SDS011;10526;50.850;12.928;2022-11-03T22:34:24;29.00;;;15.07;;
20729;SDS011;10526;50.850;12.928;2022-11-03T22:39:05;30.08;;;16.60;;
20729;SDS011;10526;50.850;12.928;2022-11-03T22:43:45;33.90;;;16.13;;
20729;SDS011;10526;50.850;12.928;2022-11-03T22:48:26;36.63;;;17.95;;
20729;SDS011;10526;50.850;12.928;2022-11-03T22:52:48;32.70;;;17.38;;
20729;SDS011;10526;50.850;12.928;2022-11-03T22:57:10;34.17;;;18.65;;
20729;SDS011;10526;50.850;12.928;2022-11-03T23:01:33;32.50;;;18.90;;
20729;SDS011;10526;50.850;12.928;2022-11-03T23:05:58;32.90;;;19.52;;
20729;SDS011;10526;50.850;12.928;2022-11-03T23:10:24;36.17;;;19.40;;
20729;SDS011;10526;50.850;12.928;2022-11-03T23:14:48;37.70;;;18.83;;
20729;SDS011;10526;50.850;12.928;2022-11-03T23:19:28;33.45;;;17.95;;
20729;SDS011;10526;50.850;12.928;2022-11-03T23:24:09;32.90;;;18.65;;
20729;SDS011;10526;50.850;12.928;2022-11-03T23:28:50;37.90;;;17.83;;
20729;SDS011;10526;50.850;12.928;2022-11-03T23:33:13;35.03;;;18.50;;
20729;SDS011;10526;50.850;12.928;2022-11-03T23:37:34;34.83;;;18.63;;
20729;SDS011;10526;50.850;12.928;2022-11-03T23:41:56;34.03;;;18.83;;
20729;SDS011;10526;50.850;12.928;2022-11-03T23:46:19;36.08;;;19.48;;
20729;SDS011;10526;50.850;12.928;2022-11-03T23:51:06;36.95;;;19.58;;
20729;SDS011;10526;50.850;12.928;2022-11-03T23:55:28;31.33;;;18.58;;
